sensor_id;sensor_type;location;lat;lon;timestamp;pressure;altitude;pressure_sealevel;temperature;humidity
49827;BME280;35715;51.570;6.036;2023-03-03T00:01:45;102293.88;;;1.34;100.00
49827;BME280;35715;51.570;6.036;2023-03-03T00:04:11;102299.41;;;1.45;100.00
49827;BME280;35715;51.570;6.036;2023-03-03T00:06:39;102297.16;;;1.33;100.00
49827;BME280;35715;51.570;6.036;2023-03-03T00:09:04;102303.91;;;1.40;100.00
49827;BME280;35715;51.570;6.036;2023-03-03T00:11:29;102310.84;;;1.41;100.00
49827;BME280;35715;51.570;6.036;2023-03-03T00:13:55;102306.38;;;1.53;100.00
49827;BME280;35715;51.570;6.036;2023-03-03T00:16:28;102308.03;;;1.52;99.28
49827;BME280;35715;51.570;6.036;2023-03-03T00:18:55;102313.69;;;1.17;100.00
49827;BME280;35715;51.570;6.036;2023-03-03T00:23:45;102312.22;;;1.32;100.00
49827;BME280;35715;51.570;6.036;2023-03-03T00:26:20;102315.25;;;1.29;100.00
49827;BME280;35715;51.570;6.036;2023-03-03T00:28:47;102313.50;;;1.35;100.00
49827;BME280;35715;51.570;6.036;2023-03-03T00:31:20;102313.88;;;1.18;100.00
49827;BME280;35715;51.570;6.036;2023-03-03T00:33:47;102317.72;;;1.22;100.00
49827;BME280;35715;51.570;6.036;2023-03-03T00:38:41;102317.16;;;1.04;100.00
49827;BME280;35715;51.570;6.036;2023-03-03T00:41:22;102323.59;;;1.08;100.00
49827;BME280;35715;51.570;6.036;2023-03-03T00:43:48;102320.34;;;1.09;100.00
49827;BME280;35715;51.570;6.036;2023-03-03T00:46:20;102326.00;;;1.14;100.00
49827;BME280;35715;51.570;6.036;2023-03-03T00:48:46;102319.78;;;1.12;100.00
49827;BME280;35715;51.570;6.036;2023-03-03T00:53:49;102323.00;;;1.03;100.00
49827;BME280;35715;51.570;6.036;2023-03-03T00:56:14;102328.56;;;1.34;100.00
49827;BME280;35715;51.570;6.036;2023-03-03T00:58:39;102316.75;;;1.34;100.00
49827;BME280;35715;51.570;6.036;2023-03-03T01:01:05;102319.88;;;1.39;100.00
49827;BME280;35715;51.570;6.036;2023-03-03T01:03:30;102324.50;;;1.29;100.00
49827;BME280;35715;51.570;6.036;2023-03-03T01:05:56;102317.22;;;1.45;100.00
49827;BME280;35715;51.570;6.036;2023-03-03T01:08:21;102324.69;;;1.30;100.00
49827;BME280;35715;51.570;6.036;2023-03-03T01:11:00;102323.31;;;1.19;100.00
49827;BME280;35715;51.570;6.036;2023-03-03T01:13:29;102325.75;;;1.25;100.00
49827;BME280;35715;51.570;6.036;2023-03-03T01:15:55;102331.34;;;1.22;100.00
49827;BME280;35715;51.570;6.036;2023-03-03T01:18:20;102331.72;;;1.26;100.00
49827;BME280;35715;51.570;6.036;2023-03-03T01:20:46;102334.03;;;1.17;100.00
49827;BME280;35715;51.570;6.036;2023-03-03T01:23:11;102327.63;;;1.13;100.00
49827;BME280;35715;51.570;6.036;2023-03-03T01:25:36;102332.94;;;1.35;100.00
49827;BME280;35715;51.570;6.036;2023-03-03T01:28:02;102330.84;;;1.45;100.00
49827;BME280;35715;51.570;6.036;2023-03-03T01:30:27;102336.38;;;1.55;100.00
49827;BME280;35715;51.570;6.036;2023-03-03T01:32:52;102341.16;;;1.39;100.00
49827;BME280;35715;51.570;6.036;2023-03-03T01:35:18;102335.34;;;1.40;100.00
49827;BME280;35715;51.570;6.036;2023-03-03T01:37:44;102333.25;;;1.31;100.00
49827;BME280;35715;51.570;6.036;2023-03-03T01:40:21;102337.41;;;1.30;100.00
49827;BME280;35715;51.570;6.036;2023-03-03T01:42:46;102339.72;;;1.09;100.00
49827;BME280;35715;51.570;6.036;2023-03-03T01:50:32;102332.78;;;1.20;100.00
49827;BME280;35715;51.570;6.036;2023-03-03T01:53:00;102334.25;;;1.38;100.00
49827;BME280;35715;51.570;6.036;2023-03-03T01:55:28;102319.41;;;1.29;100.00
49827;BME280;35715;51.570;6.036;2023-03-03T01:57:59;102326.28;;;1.42;100.00
49827;BME280;35715;51.570;6.036;2023-03-03T02:00:26;102331.38;;;1.42;100.00
49827;BME280;35715;51.570;6.036;2023-03-03T02:02:51;102335.03;;;1.45;100.00
49827;BME280;35715;51.570;6.036;2023-03-03T02:05:17;102326.81;;;1.20;100.00
49827;BME280;35715;51.570;6.036;2023-03-03T02:07:43;102324.88;;;1.12;100.00
49827;BME280;35715;51.570;6.036;2023-03-03T02:10:13;102336.69;;;1.11;100.00
49827;BME280;35715;51.570;6.036;2023-03-03T02:12:49;102326.22;;;1.15;100.00
49827;BME280;35715;51.570;6.036;2023-03-03T02:17:40;102339.00;;;1.42;100.00
49827;BME280;35715;51.570;6.036;2023-03-03T02:20:08;102330.25;;;1.40;100.00
49827;BME280;35715;51.570;6.036;2023-03-03T02:22:43;102340.63;;;1.42;100.00
49827;BME280;35715;51.570;6.036;2023-03-03T02:25:12;102331.50;;;1.37;99.64
49827;BME280;35715;51.570;6.036;2023-03-03T02:27:40;102331.50;;;1.37;100.00
49827;BME280;35715;51.570;6.036;2023-03-03T02:30:12;102328.09;;;1.44;99.32
49827;BME280;35715;51.570;6.036;2023-03-03T02:32:38;102336.28;;;1.41;99.43
49827;BME280;35715;51.570;6.036;2023-03-03T02:37:47;102329.34;;;1.40;98.72
49827;BME280;35715;51.570;6.036;2023-03-03T02:40:13;102333.25;;;1.31;99.65
49827;BME280;35715;51.570;6.036;2023-03-03T02:42:39;102330.78;;;1.38;99.99
49827;BME280;35715;51.570;6.036;2023-03-03T02:45:05;102326.66;;;1.26;100.00
49827;BME280;35715;51.570;6.036;2023-03-03T02:47:31;102331.41;;;1.30;100.00
49827;BME280;35715;51.570;6.036;2023-03-03T02:49:56;102334.22;;;1.18;100.00
49827;BME280;35715;51.570;6.036;2023-03-03T02:52:21;102328.88;;;1.30;99.88
49827;BME280;35715;51.570;6.036;2023-03-03T02:54:47;102343.16;;;1.22;100.00
49827;BME280;35715;51.570;6.036;2023-03-03T02:57:13;102327.34;;;1.04;100.00
49827;BME280;35715;51.570;6.036;2023-03-03T02:59:38;102337.84;;;1.00;100.00
49827;BME280;35715;51.570;6.036;2023-03-03T03:02:03;102326.34;;;0.97;100.00
49827;BME280;35715;51.570;6.036;2023-03-03T03:04:29;102329.81;;;0.97;100.00
49827;BME280;35715;51.570;6.036;2023-03-03T03:06:58;102330.31;;;0.95;100.00
49827;BME280;35715;51.570;6.036;2023-03-03T03:09:24;102331.50;;;1.17;100.00
49827;BME280;35715;51.570;6.036;2023-03-03T03:11:49;102330.31;;;1.28;100.00
49827;BME280;35715;51.570;6.036;2023-03-03T03:14:15;102336.50;;;1.30;100.00
49827;BME280;35715;51.570;6.036;2023-03-03T03:16:41;102328.59;;;1.21;100.00
49827;BME280;35715;51.570;6.036;2023-03-03T03:19:07;102330.00;;;1.32;100.00
49827;BME280;35715;51.570;6.036;2023-03-03T03:21:32;102344.31;;;1.11;100.00
49827;BME280;35715;51.570;6.036;2023-03-03T03:23:58;102338.72;;;1.14;100.00
49827;BME280;35715;51.570;6.036;2023-03-03T03:26:27;102338.75;;;1.01;100.00
49827;BME280;35715;51.570;6.036;2023-03-03T03:28:53;102338.94;;;1.02;100.00
49827;BME280;35715;51.570;6.036;2023-03-03T03:31:19;102337.19;;;1.09;100.00
49827;BME280;35715;51.570;6.036;2023-03-03T03:33:45;102339.63;;;1.14;100.00
49827;BME280;35715;51.570;6.036;2023-03-03T03:38:40;102341.56;;;1.10;100.00
49827;BME280;35715;51.570;6.036;2023-03-03T03:41:06;102336.22;;;1.01;100.00
49827;BME280;35715;51.570;6.036;2023-03-03T03:43:31;102344.94;;;1.03;100.00
49827;BME280;35715;51.570;6.036;2023-03-03T03:45:59;102347.91;;;1.06;100.00
49827;BME280;35715;51.570;6.036;2023-03-03T03:48:24;102340.00;;;0.97;100.00
49827;BME280;35715;51.570;6.036;2023-03-03T03:50:49;102345.34;;;1.06;100.00
49827;BME280;35715;51.570;6.036;2023-03-03T03:53:15;102336.50;;;0.97;100.00
49827;BME280;35715;51.570;6.036;2023-03-03T03:58:11;102343.25;;;1.16;100.00
49827;BME280;35715;51.570;6.036;2023-03-03T04:00:38;102353.78;;;1.12;100.00
49827;BME280;35715;51.570;6.036;2023-03-03T04:03:04;102351.75;;;0.97;100.00
49827;BME280;35715;51.570;6.036;2023-03-03T04:05:30;102348.81;;;0.94;100.00
49827;BME280;35715;51.570;6.036;2023-03-03T04:07:55;102352.16;;;1.00;100.00
49827;BME280;35715;51.570;6.036;2023-03-03T04:10:20;102352.03;;;1.05;100.00
49827;BME280;35715;51.570;6.036;2023-03-03T04:12:46;102351.22;;;1.12;100.00
49827;BME280;35715;51.570;6.036;2023-03-03T04:15:12;102352.66;;;1.10;100.00
49827;BME280;35715;51.570;6.036;2023-03-03T04:17:38;102355.28;;;1.04;100.00
49827;BME280;35715;51.570;6.036;2023-03-03T04:20:03;102349.00;;;1.08;100.00
49827;BME280;35715;51.570;6.036;2023-03-03T04:22:29;102346.56;;;1.02;100.00
49827;BME280;35715;51.570;6.036;2023-03-03T04:24:58;102351.44;;;1.01;100.00
49827;BME280;35715;51.570;6.036;2023-03-03T04:27:23;102345.56;;;1.08;100.00
49827;BME280;35715;51.570;6.036;2023-03-03T04:29:48;102343.31;;;1.03;100.00
49827;BME280;35715;51.570;6.036;2023-03-03T04:32:14;102350.00;;;1.03;100.00
49827;BME280;35715;51.570;6.036;2023-03-03T04:34:39;102346.66;;;1.10;100.00
49827;BME280;35715;51.570;6.036;2023-03-03T04:37:12;102352.94;;;1.19;100.00
49827;BME280;35715;51.570;6.036;2023-03-03T04:39:37;102349.69;;;1.20;100.00
49827;BME280;35715;51.570;6.036;2023-03-03T04:42:03;102354.00;;;1.34;100.00
49827;BME280;35715;51.570;6.036;2023-03-03T04:44:28;102353.09;;;1.33;100.00
49827;BME280;35715;51.570;6.036;2023-03-03T04:46:53;102353.13;;;1.40;100.00
49827;BME280;35715;51.570;6.036;2023-03-03T04:49:19;102354.38;;;1.57;100.00
49827;BME280;35715;51.570;6.036;2023-03-03T04:51:44;102348.41;;;1.56;100.00
49827;BME280;35715;51.570;6.036;2023-03-03T04:54:09;102349.69;;;1.60;100.00
49827;BME280;35715;51.570;6.036;2023-03-03T04:56:43;102358.81;;;1.45;100.00
49827;BME280;35715;51.570;6.036;2023-03-03T04:59:09;102356.75;;;1.55;100.00
49827;BME280;35715;51.570;6.036;2023-03-03T05:01:34;102352.03;;;1.58;100.00
49827;BME280;35715;51.570;6.036;2023-03-03T05:04:00;102363.69;;;1.44;100.00
49827;BME280;35715;51.570;6.036;2023-03-03T05:06:25;102360.19;;;1.36;100.00
49827;BME280;35715;51.570;6.036;2023-03-03T05:08:50;102358.69;;;1.31;100.00
49827;BME280;35715;51.570;6.036;2023-03-03T05:11:16;102356.66;;;1.28;100.00
49827;BME280;35715;51.570;6.036;2023-03-03T05:13:41;102368.56;;;1.55;100.00
49827;BME280;35715;51.570;6.036;2023-03-03T05:16:06;102353.91;;;1.47;99.81
49827;BME280;35715;51.570;6.036;2023-03-03T05:18:32;102364.94;;;1.40;100.00
49827;BME280;35715;51.570;6.036;2023-03-03T05:20:58;102368.94;;;1.38;100.00
49827;BME280;35715;51.570;6.036;2023-03-03T05:23:24;102367.63;;;1.34;100.00
49827;BME280;35715;51.570;6.036;2023-03-03T05:25:50;102360.19;;;1.36;100.00
49827;BME280;35715;51.570;6.036;2023-03-03T05:28:16;102375.13;;;1.40;100.00
49827;BME280;35715;51.570;6.036;2023-03-03T05:30:41;102366.19;;;1.36;100.00
49827;BME280;35715;51.570;6.036;2023-03-03T05:33:07;102363.56;;;1.29;100.00
49827;BME280;35715;51.570;6.036;2023-03-03T05:35:36;102368.94;;;1.38;100.00
49827;BME280;35715;51.570;6.036;2023-03-03T05:38:01;102370.16;;;1.34;100.00
49827;BME280;35715;51.570;6.036;2023-03-03T05:40:27;102376.22;;;1.42;100.00
49827;BME280;35715;51.570;6.036;2023-03-03T05:42:52;102377.34;;;1.44;100.00
49827;BME280;35715;51.570;6.036;2023-03-03T05:45:18;102367.63;;;1.34;100.00
49827;BME280;35715;51.570;6.036;2023-03-03T05:47:45;102368.84;;;1.31;100.00
49827;BME280;35715;51.570;6.036;2023-03-03T05:50:10;102372.50;;;1.33;100.00
49827;BME280;35715;51.570;6.036;2023-03-03T05:52:36;102367.22;;;1.31;100.00
49827;BME280;35715;51.570;6.036;2023-03-03T05:55:01;102364.94;;;1.40;100.00
49827;BME280;35715;51.570;6.036;2023-03-03T05:57:28;102372.91;;;1.56;100.00
49827;BME280;35715;51.570;6.036;2023-03-03T05:59:54;102363.69;;;1.44;100.00
49827;BME280;35715;51.570;6.036;2023-03-03T06:02:19;102370.31;;;1.49;100.00
49827;BME280;35715;51.570;6.036;2023-03-03T06:04:44;102374.66;;;1.50;100.00
49827;BME280;35715;51.570;6.036;2023-03-03T06:09:38;102375.19;;;1.67;100.00
49827;BME280;35715;51.570;6.036;2023-03-03T06:12:03;102382.25;;;1.63;100.00
49827;BME280;35715;51.570;6.036;2023-03-03T06:14:28;102384.72;;;1.55;100.00
49827;BME280;35715;51.570;6.036;2023-03-03T06:17:01;102386.28;;;1.48;100.00
49827;BME280;35715;51.570;6.036;2023-03-03T06:19:26;102384.63;;;1.48;100.00
49827;BME280;35715;51.570;6.036;2023-03-03T06:21:51;102388.97;;;1.62;100.00
49827;BME280;35715;51.570;6.036;2023-03-03T06:24:17;102393.13;;;1.62;100.00
49827;BME280;35715;51.570;6.036;2023-03-03T06:26:43;102393.88;;;1.61;100.00
49827;BME280;35715;51.570;6.036;2023-03-03T06:29:08;102399.34;;;1.64;100.00
49827;BME280;35715;51.570;6.036;2023-03-03T06:31:34;102398.31;;;1.69;100.00
49827;BME280;35715;51.570;6.036;2023-03-03T06:33:59;102393.41;;;1.90;100.00
49827;BME280;35715;51.570;6.036;2023-03-03T06:36:29;102412.84;;;1.90;99.97
49827;BME280;35715;51.570;6.036;2023-03-03T06:38:54;102414.69;;;1.91;99.49
49827;BME280;35715;51.570;6.036;2023-03-03T06:41:19;102416.09;;;1.89;99.59
49827;BME280;35715;51.570;6.036;2023-03-03T06:43:44;102415.06;;;1.94;99.42
49827;BME280;35715;51.570;6.036;2023-03-03T06:48:39;102427.84;;;1.81;100.00
49827;BME280;35715;51.570;6.036;2023-03-03T06:51:11;102432.22;;;1.82;100.00
49827;BME280;35715;51.570;6.036;2023-03-03T06:53:41;102430.28;;;1.87;100.00
49827;BME280;35715;51.570;6.036;2023-03-03T06:58:35;102421.06;;;1.94;99.40
49827;BME280;35715;51.570;6.036;2023-03-03T07:01:00;102431.25;;;1.94;98.67
49827;BME280;35715;51.570;6.036;2023-03-03T07:03:32;102426.22;;;2.02;97.84
49827;BME280;35715;51.570;6.036;2023-03-03T07:08:29;102440.72;;;1.95;98.15
49827;BME280;35715;51.570;6.036;2023-03-03T07:10:54;102443.97;;;1.94;97.23
49827;BME280;35715;51.570;6.036;2023-03-03T07:15:45;102446.53;;;1.94;98.55
49827;BME280;35715;51.570;6.036;2023-03-03T07:20:56;102443.25;;;1.75;99.72
49827;BME280;35715;51.570;6.036;2023-03-03T07:23:40;102447.03;;;1.72;98.38
49827;BME280;35715;51.570;6.036;2023-03-03T07:26:14;102457.41;;;1.73;98.74
49827;BME280;35715;51.570;6.036;2023-03-03T07:28:41;102456.91;;;1.76;98.82
49827;BME280;35715;51.570;6.036;2023-03-03T07:31:16;102450.47;;;1.72;99.14
49827;BME280;35715;51.570;6.036;2023-03-03T07:33:45;102460.47;;;1.71;98.41
49827;BME280;35715;51.570;6.036;2023-03-03T07:38:57;102465.72;;;1.85;98.63
49827;BME280;35715;51.570;6.036;2023-03-03T07:41:23;102467.56;;;1.86;97.68
49827;BME280;35715;51.570;6.036;2023-03-03T07:43:49;102476.16;;;1.94;97.39
49827;BME280;35715;51.570;6.036;2023-03-03T07:46:25;102475.91;;;2.05;97.35
49827;BME280;35715;51.570;6.036;2023-03-03T07:48:52;102479.41;;;2.13;96.71
49827;BME280;35715;51.570;6.036;2023-03-03T07:53:47;102472.69;;;2.34;96.17
49827;BME280;35715;51.570;6.036;2023-03-03T07:56:16;102467.00;;;2.29;95.59
49827;BME280;35715;51.570;6.036;2023-03-03T07:58:44;102475.16;;;2.26;95.05
49827;BME280;35715;51.570;6.036;2023-03-03T08:01:25;102482.63;;;2.25;96.33
49827;BME280;35715;51.570;6.036;2023-03-03T08:03:52;102482.75;;;2.39;96.22
49827;BME280;35715;51.570;6.036;2023-03-03T08:06:30;102488.03;;;2.21;95.44
49827;BME280;35715;51.570;6.036;2023-03-03T08:09:15;102483.91;;;2.08;96.16
49827;BME280;35715;51.570;6.036;2023-03-03T08:14:18;102487.84;;;1.99;96.91
49827;BME280;35715;51.570;6.036;2023-03-03T08:16:49;102494.50;;;2.11;97.45
49827;BME280;35715;51.570;6.036;2023-03-03T08:19:14;102493.13;;;2.21;96.01
49827;BME280;35715;51.570;6.036;2023-03-03T08:21:41;102504.56;;;2.17;97.05
49827;BME280;35715;51.570;6.036;2023-03-03T08:24:06;102498.22;;;2.21;96.71
49827;BME280;35715;51.570;6.036;2023-03-03T08:28:59;102498.75;;;2.38;95.99
49827;BME280;35715;51.570;6.036;2023-03-03T08:31:25;102503.88;;;2.25;95.17
49827;BME280;35715;51.570;6.036;2023-03-03T08:33:51;102511.03;;;2.28;96.47
49827;BME280;35715;51.570;6.036;2023-03-03T08:36:16;102515.44;;;2.36;96.54
49827;BME280;35715;51.570;6.036;2023-03-03T08:38:41;102517.47;;;2.39;96.45
49827;BME280;35715;51.570;6.036;2023-03-03T08:41:07;102513.69;;;2.42;96.26
49827;BME280;35715;51.570;6.036;2023-03-03T08:43:32;102509.31;;;2.41;95.56
49827;BME280;35715;51.570;6.036;2023-03-03T08:45:59;102515.00;;;2.46;95.00
49827;BME280;35715;51.570;6.036;2023-03-03T08:48:25;102520.72;;;2.58;95.56
49827;BME280;35715;51.570;6.036;2023-03-03T08:50:51;102512.63;;;2.47;94.86
49827;BME280;35715;51.570;6.036;2023-03-03T08:53:16;102510.28;;;2.49;96.34
49827;BME280;35715;51.570;6.036;2023-03-03T08:55:43;102513.75;;;2.49;95.04
49827;BME280;35715;51.570;6.036;2023-03-03T08:58:08;102521.97;;;2.54;95.71
49827;BME280;35715;51.570;6.036;2023-03-03T09:00:34;102518.38;;;2.59;94.91
49827;BME280;35715;51.570;6.036;2023-03-03T09:02:59;102514.31;;;2.81;94.45
49827;BME280;35715;51.570;6.036;2023-03-03T09:05:25;102526.56;;;2.84;92.81
49827;BME280;35715;51.570;6.036;2023-03-03T09:07:50;102520.25;;;2.95;92.30
49827;BME280;35715;51.570;6.036;2023-03-03T09:10:17;102525.44;;;3.09;92.51
49827;BME280;35715;51.570;6.036;2023-03-03T09:12:44;102527.06;;;3.09;92.48
49827;BME280;35715;51.570;6.036;2023-03-03T09:15:20;102531.72;;;2.91;91.16
49827;BME280;35715;51.570;6.036;2023-03-03T09:17:47;102525.47;;;2.89;91.89
49827;BME280;35715;51.570;6.036;2023-03-03T09:22:40;102531.53;;;3.24;90.11
49827;BME280;35715;51.570;6.036;2023-03-03T09:25:13;102528.25;;;3.25;89.74
49827;BME280;35715;51.570;6.036;2023-03-03T09:27:44;102529.72;;;3.23;91.16
49827;BME280;35715;51.570;6.036;2023-03-03T09:30:55;102532.81;;;3.28;90.88
49827;BME280;35715;51.570;6.036;2023-03-03T09:32:57;102544.91;;;3.09;90.45
49827;BME280;35715;51.570;6.036;2023-03-03T09:37:51;102535.47;;;3.15;90.39
49827;BME280;35715;51.570;6.036;2023-03-03T09:45:43;102543.84;;;3.41;89.40
49827;BME280;35715;51.570;6.036;2023-03-03T09:48:23;102534.53;;;3.42;89.09
49827;BME280;35715;51.570;6.036;2023-03-03T09:53:42;102544.78;;;3.49;89.15
49827;BME280;35715;51.570;6.036;2023-03-03T09:59:03;102549.06;;;3.70;87.35
49827;BME280;35715;51.570;6.036;2023-03-03T10:01:50;102545.22;;;3.73;87.16
49827;BME280;35715;51.570;6.036;2023-03-03T10:12:34;102544.94;;;3.99;85.42
49827;BME280;35715;51.570;6.036;2023-03-03T10:15:13;102546.19;;;3.88;85.12
49827;BME280;35715;51.570;6.036;2023-03-03T10:17:51;102551.00;;;3.58;86.30
49827;BME280;35715;51.570;6.036;2023-03-03T10:36:25;102551.19;;;4.23;84.80
49827;BME280;35715;51.570;6.036;2023-03-03T11:02:24;102544.09;;;5.89;77.99
49827;BME280;35715;51.570;6.036;2023-03-03T11:10:14;102549.66;;;5.71;75.87
49827;BME280;35715;51.570;6.036;2023-03-03T11:15:40;102542.13;;;5.79;76.24
49827;BME280;35715;51.570;6.036;2023-03-03T11:25:53;102539.97;;;6.36;73.30
49827;BME280;35715;51.570;6.036;2023-03-03T11:30:52;102534.16;;;5.99;73.01
49827;BME280;35715;51.570;6.036;2023-03-03T11:33:29;102533.94;;;7.14;72.49
49827;BME280;35715;51.570;6.036;2023-03-03T11:41:16;102508.91;;;11.16;56.25
49827;BME280;35715;51.570;6.036;2023-03-03T11:43:46;102515.53;;;11.42;56.35
49827;BME280;35715;51.570;6.036;2023-03-03T11:49:21;102509.22;;;10.55;59.53
49827;BME280;35715;51.570;6.036;2023-03-03T11:52:02;102510.81;;;10.99;58.29
49827;BME280;35715;51.570;6.036;2023-03-03T11:54:35;102507.41;;;11.85;55.92
49827;BME280;35715;51.570;6.036;2023-03-03T11:59:41;102501.34;;;11.28;53.83
49827;BME280;35715;51.570;6.036;2023-03-03T12:09:51;102501.47;;;10.01;56.27
49827;BME280;35715;51.570;6.036;2023-03-03T12:12:23;102501.72;;;9.50;58.19
49827;BME280;35715;51.570;6.036;2023-03-03T12:20:02;102503.81;;;8.59;60.71
49827;BME280;35715;51.570;6.036;2023-03-03T12:22:33;102498.50;;;9.09;60.87
49827;BME280;35715;51.570;6.036;2023-03-03T12:33:06;102492.81;;;10.63;56.09
49827;BME280;35715;51.570;6.036;2023-03-03T12:40:33;102490.47;;;10.38;54.21
49827;BME280;35715;51.570;6.036;2023-03-03T12:43:22;102487.81;;;11.49;54.04
49827;BME280;35715;51.570;6.036;2023-03-03T12:48:40;102471.41;;;11.30;53.78
49827;BME280;35715;51.570;6.036;2023-03-03T12:51:14;102480.81;;;10.63;54.09
49827;BME280;35715;51.570;6.036;2023-03-03T12:54:01;102477.75;;;10.68;55.21
49827;BME280;35715;51.570;6.036;2023-03-03T12:59:03;102469.75;;;10.56;55.60
49827;BME280;35715;51.570;6.036;2023-03-03T13:07:30;102474.09;;;10.29;55.18
49827;BME280;35715;51.570;6.036;2023-03-03T13:12:07;102463.34;;;10.33;56.84
49827;BME280;35715;51.570;6.036;2023-03-03T13:14:44;102473.75;;;9.98;56.36
49827;BME280;35715;51.570;6.036;2023-03-03T13:17:18;102464.84;;;10.31;56.41
49827;BME280;35715;51.570;6.036;2023-03-03T13:27:17;102459.03;;;8.66;59.27
49827;BME280;35715;51.570;6.036;2023-03-03T13:30:00;102460.91;;;8.84;61.26
49827;BME280;35715;51.570;6.036;2023-03-03T13:35:06;102461.63;;;8.75;62.06
49827;BME280;35715;51.570;6.036;2023-03-03T13:37:44;102456.31;;;8.64;62.16
49827;BME280;35715;51.570;6.036;2023-03-03T13:42:52;102466.56;;;8.47;64.48
49827;BME280;35715;51.570;6.036;2023-03-03T14:01:22;102453.53;;;7.87;65.47
49827;BME280;35715;51.570;6.036;2023-03-03T14:03:56;102446.84;;;7.80;64.86
49827;BME280;35715;51.570;6.036;2023-03-03T14:06:35;102449.97;;;7.94;64.09
49827;BME280;35715;51.570;6.036;2023-03-03T14:09:06;102444.53;;;7.75;66.32
49827;BME280;35715;51.570;6.036;2023-03-03T14:11:37;102444.50;;;7.66;65.88
49827;BME280;35715;51.570;6.036;2023-03-03T14:19:21;102448.06;;;7.84;65.55
49827;BME280;35715;51.570;6.036;2023-03-03T14:21:52;102447.38;;;7.94;65.04
49827;BME280;35715;51.570;6.036;2023-03-03T14:24:21;102440.41;;;7.93;66.18
49827;BME280;35715;51.570;6.036;2023-03-03T14:26:53;102436.06;;;8.00;65.19
49827;BME280;35715;51.570;6.036;2023-03-03T14:29:20;102438.28;;;7.89;65.71
49827;BME280;35715;51.570;6.036;2023-03-03T14:31:46;102431.66;;;7.66;66.27
49827;BME280;35715;51.570;6.036;2023-03-03T14:39:50;102437.53;;;7.65;65.68
49827;BME280;35715;51.570;6.036;2023-03-03T14:42:38;102433.72;;;7.61;66.24
49827;BME280;35715;51.570;6.036;2023-03-03T14:45:14;102425.72;;;7.83;65.30
49827;BME280;35715;51.570;6.036;2023-03-03T14:50:31;102422.34;;;7.75;66.97
49827;BME280;35715;51.570;6.036;2023-03-03T14:55:49;102417.66;;;8.05;65.14
49827;BME280;35715;51.570;6.036;2023-03-03T14:58:25;102420.31;;;8.22;65.07
49827;BME280;35715;51.570;6.036;2023-03-03T15:01:14;102414.69;;;8.17;64.25
49827;BME280;35715;51.570;6.036;2023-03-03T15:03:42;102414.00;;;8.36;64.38
49827;BME280;35715;51.570;6.036;2023-03-03T15:08:54;102406.41;;;8.29;64.63
49827;BME280;35715;51.570;6.036;2023-03-03T15:11:25;102401.72;;;8.33;64.65
49827;BME280;35715;51.570;6.036;2023-03-03T15:13:52;102398.41;;;8.34;64.12
49827;BME280;35715;51.570;6.036;2023-03-03T15:16:22;102400.66;;;8.40;65.96
49827;BME280;35715;51.570;6.036;2023-03-03T15:21:17;102389.09;;;8.61;64.04
49827;BME280;35715;51.570;6.036;2023-03-03T15:26:31;102373.81;;;8.45;64.11
49827;BME280;35715;51.570;6.036;2023-03-03T15:36:34;102369.34;;;8.35;63.24
49827;BME280;35715;51.570;6.036;2023-03-03T15:39:09;102372.13;;;8.46;63.31
49827;BME280;35715;51.570;6.036;2023-03-03T15:41:48;102371.09;;;8.61;63.44
49827;BME280;35715;51.570;6.036;2023-03-03T15:44:19;102361.25;;;8.66;63.19
49827;BME280;35715;51.570;6.036;2023-03-03T15:52:11;102363.38;;;8.70;62.90
49827;BME280;35715;51.570;6.036;2023-03-03T16:04:48;102348.25;;;8.56;62.78
49827;BME280;35715;51.570;6.036;2023-03-03T16:10:07;102347.31;;;8.55;63.01
49827;BME280;35715;51.570;6.036;2023-03-03T16:12:40;102353.72;;;8.59;62.48
49827;BME280;35715;51.570;6.036;2023-03-03T16:15:13;102352.19;;;8.61;62.31
49827;BME280;35715;51.570;6.036;2023-03-03T16:25:19;102352.50;;;8.73;63.19
49827;BME280;35715;51.570;6.036;2023-03-03T16:27:55;102355.69;;;8.87;62.62
49827;BME280;35715;51.570;6.036;2023-03-03T16:33:13;102349.03;;;8.63;61.99
49827;BME280;35715;51.570;6.036;2023-03-03T16:38:22;102359.28;;;8.46;63.33
49827;BME280;35715;51.570;6.036;2023-03-03T16:40:53;102354.88;;;8.53;62.87
49827;BME280;35715;51.570;6.036;2023-03-03T16:46:10;102357.16;;;8.50;62.23
49827;BME280;35715;51.570;6.036;2023-03-03T16:48:43;102357.88;;;8.41;66.23
49827;BME280;35715;51.570;6.036;2023-03-03T16:51:25;102351.47;;;8.20;66.13
49827;BME280;35715;51.570;6.036;2023-03-03T16:54:06;102365.19;;;8.03;66.63
49827;BME280;35715;51.570;6.036;2023-03-03T16:56:45;102372.53;;;7.91;66.58
49827;BME280;35715;51.570;6.036;2023-03-03T17:04:51;102367.94;;;8.22;65.40
49827;BME280;35715;51.570;6.036;2023-03-03T17:07:42;102376.28;;;8.28;64.79
49827;BME280;35715;51.570;6.036;2023-03-03T17:10:14;102380.53;;;8.27;64.63
49827;BME280;35715;51.570;6.036;2023-03-03T17:15:32;102384.91;;;8.20;65.88
49827;BME280;35715;51.570;6.036;2023-03-03T17:18:09;102381.44;;;8.28;65.94
49827;BME280;35715;51.570;6.036;2023-03-03T17:20:43;102385.41;;;8.33;66.33
49827;BME280;35715;51.570;6.036;2023-03-03T17:25:43;102395.84;;;8.34;65.18
49827;BME280;35715;51.570;6.036;2023-03-03T17:38:29;102402.19;;;8.38;67.39
49827;BME280;35715;51.570;6.036;2023-03-03T17:41:08;102402.34;;;8.40;67.68
49827;BME280;35715;51.570;6.036;2023-03-03T17:43:38;102403.88;;;8.38;67.34
49827;BME280;35715;51.570;6.036;2023-03-03T17:46:19;102411.31;;;8.43;67.73
49827;BME280;35715;51.570;6.036;2023-03-03T17:48:50;102406.03;;;8.50;67.50
49827;BME280;35715;51.570;6.036;2023-03-03T17:51:43;102410.75;;;8.55;66.76
49827;BME280;35715;51.570;6.036;2023-03-03T17:54:59;102418.44;;;8.46;66.50
49827;BME280;35715;51.570;6.036;2023-03-03T18:07:34;102437.06;;;8.52;65.62
49827;BME280;35715;51.570;6.036;2023-03-03T18:12:37;102435.41;;;8.61;65.37
49827;BME280;35715;51.570;6.036;2023-03-03T18:17:58;102439.66;;;8.61;64.70